sensor_id;sensor_type;location;lat;lon;timestamp;temperature;humidity
49238;DHT22;35069;47.906;1.892;2023-01-29T00:00:16;2.20;99.90
49238;DHT22;35069;47.906;1.892;2023-01-29T00:02:42;2.20;99.90
49238;DHT22;35069;47.906;1.892;2023-01-29T00:05:12;2.30;99.90
49238;DHT22;35069;47.906;1.892;2023-01-29T00:07:48;2.20;99.90
49238;DHT22;35069;47.906;1.892;2023-01-29T00:10:14;2.20;99.90
49238;DHT22;35069;47.906;1.892;2023-01-29T00:12:39;2.20;99.90
49238;DHT22;35069;47.906;1.892;2023-01-29T00:15:06;2.20;99.90
49238;DHT22;35069;47.906;1.892;2023-01-29T00:17:31;2.10;99.90
49238;DHT22;35069;47.906;1.892;2023-01-29T00:19:57;2.10;99.90
49238;DHT22;35069;47.906;1.892;2023-01-29T00:22:23;2.10;99.90
49238;DHT22;35069;47.906;1.892;2023-01-29T00:24:49;2.10;99.90
49238;DHT22;35069;47.906;1.892;2023-01-29T00:27:14;2.10;99.90
49238;DHT22;35069;47.906;1.892;2023-01-29T00:29:43;2.10;99.90
49238;DHT22;35069;47.906;1.892;2023-01-29T00:32:08;2.10;99.90
49238;DHT22;35069;47.906;1.892;2023-01-29T00:34:34;2.10;99.90
49238;DHT22;35069;47.906;1.892;2023-01-29T00:37:00;2.00;99.90
49238;DHT22;35069;47.906;1.892;2023-01-29T00:39:33;2.00;99.90
49238;DHT22;35069;47.906;1.892;2023-01-29T00:42:06;1.90;99.90
49238;DHT22;35069;47.906;1.892;2023-01-29T00:44:57;1.90;99.90
49238;DHT22;35069;47.906;1.892;2023-01-29T00:47:25;1.90;99.90
49238;DHT22;35069;47.906;1.892;2023-01-29T00:50:02;1.90;99.90
49238;DHT22;35069;47.906;1.892;2023-01-29T00:52:28;1.90;99.90
49238;DHT22;35069;47.906;1.892;2023-01-29T00:54:56;1.90;99.90
49238;DHT22;35069;47.906;1.892;2023-01-29T00:57:26;1.90;99.90
49238;DHT22;35069;47.906;1.892;2023-01-29T00:59:52;1.90;99.90
49238;DHT22;35069;47.906;1.892;2023-01-29T01:02:18;1.90;99.90
49238;DHT22;35069;47.906;1.892;2023-01-29T01:05:04;1.90;99.90
49238;DHT22;35069;47.906;1.892;2023-01-29T01:07:34;2.00;99.90
49238;DHT22;35069;47.906;1.892;2023-01-29T01:10:00;2.00;99.90
49238;DHT22;35069;47.906;1.892;2023-01-29T01:12:44;2.00;99.90
49238;DHT22;35069;47.906;1.892;2023-01-29T01:15:10;2.00;99.90
49238;DHT22;35069;47.906;1.892;2023-01-29T01:17:36;2.00;99.90
49238;DHT22;35069;47.906;1.892;2023-01-29T01:20:08;2.00;99.90
49238;DHT22;35069;47.906;1.892;2023-01-29T01:22:36;1.90;99.90
49238;DHT22;35069;47.906;1.892;2023-01-29T01:25:05;1.90;99.90
49238;DHT22;35069;47.906;1.892;2023-01-29T01:27:40;1.90;99.90
49238;DHT22;35069;47.906;1.892;2023-01-29T01:39:34;1.80;99.90
49238;DHT22;35069;47.906;1.892;2023-01-29T01:42:53;1.80;99.90
49238;DHT22;35069;47.906;1.892;2023-01-29T01:45:47;1.70;99.90
49238;DHT22;35069;47.906;1.892;2023-01-29T01:48:25;1.70;99.90
49238;DHT22;35069;47.906;1.892;2023-01-29T01:50:58;1.60;99.90
49238;DHT22;35069;47.906;1.892;2023-01-29T01:53:35;1.50;99.90
49238;DHT22;35069;47.906;1.892;2023-01-29T01:56:07;1.70;99.90
49238;DHT22;35069;47.906;1.892;2023-01-29T01:58:37;1.60;99.90
49238;DHT22;35069;47.906;1.892;2023-01-29T02:01:06;1.50;99.90
49238;DHT22;35069;47.906;1.892;2023-01-29T02:03:35;1.60;99.90
49238;DHT22;35069;47.906;1.892;2023-01-29T02:06:21;1.50;99.90
49238;DHT22;35069;47.906;1.892;2023-01-29T02:09:11;1.50;99.90
49238;DHT22;35069;47.906;1.892;2023-01-29T02:12:01;1.40;99.90
49238;DHT22;35069;47.906;1.892;2023-01-29T02:14:27;1.40;99.90
49238;DHT22;35069;47.906;1.892;2023-01-29T02:16:55;1.50;99.90
49238;DHT22;35069;47.906;1.892;2023-01-29T02:19:40;1.40;99.90
49238;DHT22;35069;47.906;1.892;2023-01-29T02:27:23;1.40;99.90
49238;DHT22;35069;47.906;1.892;2023-01-29T02:30:20;1.40;99.90
49238;DHT22;35069;47.906;1.892;2023-01-29T02:39:28;1.30;99.90
49238;DHT22;35069;47.906;1.892;2023-01-29T02:42:27;1.30;99.90
49238;DHT22;35069;47.906;1.892;2023-01-29T02:45:11;1.20;99.90
49238;DHT22;35069;47.906;1.892;2023-01-29T02:47:56;1.30;99.90
49238;DHT22;35069;47.906;1.892;2023-01-29T02:55:35;1.40;99.90
49238;DHT22;35069;47.906;1.892;2023-01-29T02:58:12;1.50;99.90
49238;DHT22;35069;47.906;1.892;2023-01-29T03:00:43;1.50;99.90
49238;DHT22;35069;47.906;1.892;2023-01-29T03:03:23;1.50;99.90
49238;DHT22;35069;47.906;1.892;2023-01-29T03:06:06;1.50;99.90
49238;DHT22;35069;47.906;1.892;2023-01-29T03:08:50;1.50;99.90
49238;DHT22;35069;47.906;1.892;2023-01-29T03:11:18;1.50;99.90
49238;DHT22;35069;47.906;1.892;2023-01-29T03:16:17;1.50;99.90
49238;DHT22;35069;47.906;1.892;2023-01-29T03:18:59;1.40;99.90
49238;DHT22;35069;47.906;1.892;2023-01-29T03:21:33;1.30;99.90
49238;DHT22;35069;47.906;1.892;2023-01-29T03:24:19;1.30;99.90
49238;DHT22;35069;47.906;1.892;2023-01-29T03:27:08;1.20;99.90
49238;DHT22;35069;47.906;1.892;2023-01-29T03:29:55;1.20;99.90
49238;DHT22;35069;47.906;1.892;2023-01-29T03:32:44;1.10;99.90
49238;DHT22;35069;47.906;1.892;2023-01-29T03:35:13;1.10;99.90
49238;DHT22;35069;47.906;1.892;2023-01-29T03:37:46;1.00;99.90
49238;DHT22;35069;47.906;1.892;2023-01-29T03:40:14;1.00;99.90
49238;DHT22;35069;47.906;1.892;2023-01-29T03:43:06;0.90;99.90
49238;DHT22;35069;47.906;1.892;2023-01-29T03:45:45;0.80;99.90
49238;DHT22;35069;47.906;1.892;2023-01-29T03:48:42;0.70;99.90
49238;DHT22;35069;47.906;1.892;2023-01-29T03:51:29;0.60;99.90
49238;DHT22;35069;47.906;1.892;2023-01-29T03:54:20;0.50;99.90
49238;DHT22;35069;47.906;1.892;2023-01-29T03:56:58;0.40;99.90
49238;DHT22;35069;47.906;1.892;2023-01-29T03:59:39;0.30;99.90
49238;DHT22;35069;47.906;1.892;2023-01-29T04:02:15;0.20;99.90
49238;DHT22;35069;47.906;1.892;2023-01-29T04:04:44;0.20;99.90
49238;DHT22;35069;47.906;1.892;2023-01-29T04:07:18;0.10;99.90
49238;DHT22;35069;47.906;1.892;2023-01-29T04:12:34;0.10;99.90
49238;DHT22;35069;47.906;1.892;2023-01-29T04:15:01;0.10;99.90
49238;DHT22;35069;47.906;1.892;2023-01-29T04:17:36;0.10;99.90
49238;DHT22;35069;47.906;1.892;2023-01-29T04:20:04;0.10;99.90
49238;DHT22;35069;47.906;1.892;2023-01-29T04:22:35;0.10;99.90
49238;DHT22;35069;47.906;1.892;2023-01-29T04:25:06;0.10;99.90
49238;DHT22;35069;47.906;1.892;2023-01-29T04:30:57;0.10;99.90
49238;DHT22;35069;47.906;1.892;2023-01-29T04:37:10;0.10;99.90
49238;DHT22;35069;47.906;1.892;2023-01-29T04:42:25;0.00;99.90
49238;DHT22;35069;47.906;1.892;2023-01-29T04:45:05;0.00;99.90
49238;DHT22;35069;47.906;1.892;2023-01-29T04:47:44;0.00;99.90
49238;DHT22;35069;47.906;1.892;2023-01-29T04:50:16;0.00;99.90
49238;DHT22;35069;47.906;1.892;2023-01-29T04:53:10;0.10;99.90
49238;DHT22;35069;47.906;1.892;2023-01-29T04:55:50;0.00;99.90
49238;DHT22;35069;47.906;1.892;2023-01-29T04:58:32;0.10;99.90
49238;DHT22;35069;47.906;1.892;2023-01-29T05:01:00;0.20;99.90
49238;DHT22;35069;47.906;1.892;2023-01-29T05:03:27;0.20;99.90
49238;DHT22;35069;47.906;1.892;2023-01-29T05:05:58;0.30;99.90
49238;DHT22;35069;47.906;1.892;2023-01-29T05:08:27;0.30;99.90
49238;DHT22;35069;47.906;1.892;2023-01-29T05:10:58;0.30;99.90
49238;DHT22;35069;47.906;1.892;2023-01-29T05:13:24;0.30;99.90
49238;DHT22;35069;47.906;1.892;2023-01-29T05:15:59;0.30;99.90
49238;DHT22;35069;47.906;1.892;2023-01-29T05:18:26;0.30;99.90
49238;DHT22;35069;47.906;1.892;2023-01-29T05:20:55;0.20;99.90
49238;DHT22;35069;47.906;1.892;2023-01-29T05:23:22;0.10;99.90
49238;DHT22;35069;47.906;1.892;2023-01-29T05:25:49;0.10;99.90
49238;DHT22;35069;47.906;1.892;2023-01-29T05:28:16;-0.10;99.90
49238;DHT22;35069;47.906;1.892;2023-01-29T05:30:44;-0.10;99.90
49238;DHT22;35069;47.906;1.892;2023-01-29T05:33:20;-0.10;99.90
49238;DHT22;35069;47.906;1.892;2023-01-29T05:35:46;-0.20;99.90
49238;DHT22;35069;47.906;1.892;2023-01-29T05:38:13;-0.20;99.90
49238;DHT22;35069;47.906;1.892;2023-01-29T05:40:38;-0.20;99.90
49238;DHT22;35069;47.906;1.892;2023-01-29T05:43:05;-0.10;99.90
49238;DHT22;35069;47.906;1.892;2023-01-29T05:45:31;-0.10;99.90
49238;DHT22;35069;47.906;1.892;2023-01-29T05:47:58;0.00;99.90
49238;DHT22;35069;47.906;1.892;2023-01-29T05:50:25;0.10;99.90
49238;DHT22;35069;47.906;1.892;2023-01-29T05:52:58;0.10;99.90
49238;DHT22;35069;47.906;1.892;2023-01-29T05:55:25;0.10;99.90
49238;DHT22;35069;47.906;1.892;2023-01-29T05:58:01;0.00;99.90
49238;DHT22;35069;47.906;1.892;2023-01-29T06:00:27;0.00;99.90
49238;DHT22;35069;47.906;1.892;2023-01-29T06:02:57;0.10;99.90
49238;DHT22;35069;47.906;1.892;2023-01-29T06:05:36;0.10;99.90
49238;DHT22;35069;47.906;1.892;2023-01-29T06:08:06;0.20;99.90
49238;DHT22;35069;47.906;1.892;2023-01-29T06:10:32;0.20;99.90
49238;DHT22;35069;47.906;1.892;2023-01-29T06:13:00;0.30;99.90
49238;DHT22;35069;47.906;1.892;2023-01-29T06:15:39;0.30;99.90
49238;DHT22;35069;47.906;1.892;2023-01-29T06:18:07;0.40;99.90
49238;DHT22;35069;47.906;1.892;2023-01-29T06:20:36;0.50;99.90
49238;DHT22;35069;47.906;1.892;2023-01-29T06:23:02;0.50;99.90
49238;DHT22;35069;47.906;1.892;2023-01-29T06:25:35;0.60;99.90
49238;DHT22;35069;47.906;1.892;2023-01-29T06:28:01;0.60;99.90
49238;DHT22;35069;47.906;1.892;2023-01-29T06:30:29;0.60;99.90
49238;DHT22;35069;47.906;1.892;2023-01-29T06:33:00;0.70;99.90
49238;DHT22;35069;47.906;1.892;2023-01-29T06:35:27;0.70;99.90
49238;DHT22;35069;47.906;1.892;2023-01-29T06:37:53;0.80;99.90
49238;DHT22;35069;47.906;1.892;2023-01-29T06:40:19;0.80;99.90
49238;DHT22;35069;47.906;1.892;2023-01-29T06:42:44;0.80;99.90
49238;DHT22;35069;47.906;1.892;2023-01-29T06:45:10;0.80;99.90
49238;DHT22;35069;47.906;1.892;2023-01-29T06:47:36;0.80;99.90
49238;DHT22;35069;47.906;1.892;2023-01-29T06:50:02;0.80;99.90
49238;DHT22;35069;47.906;1.892;2023-01-29T06:52:28;0.90;99.90
49238;DHT22;35069;47.906;1.892;2023-01-29T06:54:55;0.90;99.90
49238;DHT22;35069;47.906;1.892;2023-01-29T06:57:21;0.90;99.90
49238;DHT22;35069;47.906;1.892;2023-01-29T06:59:47;0.90;99.90
49238;DHT22;35069;47.906;1.892;2023-01-29T07:02:13;0.80;99.90
49238;DHT22;35069;47.906;1.892;2023-01-29T07:04:39;0.70;99.90
49238;DHT22;35069;47.906;1.892;2023-01-29T07:07:06;0.80;99.90
49238;DHT22;35069;47.906;1.892;2023-01-29T07:09:40;0.70;99.90
49238;DHT22;35069;47.906;1.892;2023-01-29T07:12:07;0.80;99.90
49238;DHT22;35069;47.906;1.892;2023-01-29T07:14:33;0.90;99.90
49238;DHT22;35069;47.906;1.892;2023-01-29T07:16:58;0.90;99.90
49238;DHT22;35069;47.906;1.892;2023-01-29T07:19:24;1.00;99.90
49238;DHT22;35069;47.906;1.892;2023-01-29T07:21:50;1.10;99.90
49238;DHT22;35069;47.906;1.892;2023-01-29T07:24:18;1.10;99.90
49238;DHT22;35069;47.906;1.892;2023-01-29T07:26:44;1.10;99.90
49238;DHT22;35069;47.906;1.892;2023-01-29T07:29:10;1.20;99.90
49238;DHT22;35069;47.906;1.892;2023-01-29T07:31:35;1.20;99.90
49238;DHT22;35069;47.906;1.892;2023-01-29T07:34:01;1.20;99.90
49238;DHT22;35069;47.906;1.892;2023-01-29T07:36:27;1.20;99.90
49238;DHT22;35069;47.906;1.892;2023-01-29T07:38:54;1.20;99.90
49238;DHT22;35069;47.906;1.892;2023-01-29T07:41:20;1.20;99.90
49238;DHT22;35069;47.906;1.892;2023-01-29T07:43:46;1.20;99.90
49238;DHT22;35069;47.906;1.892;2023-01-29T07:46:11;1.20;99.90
49238;DHT22;35069;47.906;1.892;2023-01-29T07:48:37;1.10;99.90
49238;DHT22;35069;47.906;1.892;2023-01-29T07:51:03;1.10;99.90
49238;DHT22;35069;47.906;1.892;2023-01-29T07:53:29;1.10;99.90
49238;DHT22;35069;47.906;1.892;2023-01-29T07:55:55;1.20;99.90
49238;DHT22;35069;47.906;1.892;2023-01-29T07:58:21;1.30;99.90
49238;DHT22;35069;47.906;1.892;2023-01-29T08:00:47;1.40;99.90
49238;DHT22;35069;47.906;1.892;2023-01-29T08:03:15;1.50;99.90
49238;DHT22;35069;47.906;1.892;2023-01-29T08:05:44;1.40;99.90
49238;DHT22;35069;47.906;1.892;2023-01-29T08:08:10;1.50;99.90
49238;DHT22;35069;47.906;1.892;2023-01-29T08:10:37;1.60;99.90
49238;DHT22;35069;47.906;1.892;2023-01-29T08:13:04;1.70;99.90
49238;DHT22;35069;47.906;1.892;2023-01-29T08:15:30;1.80;99.90
49238;DHT22;35069;47.906;1.892;2023-01-29T08:17:56;1.90;99.90
49238;DHT22;35069;47.906;1.892;2023-01-29T08:20:23;1.90;99.90
49238;DHT22;35069;47.906;1.892;2023-01-29T08:22:48;2.00;99.90
49238;DHT22;35069;47.906;1.892;2023-01-29T08:25:14;2.10;99.90
49238;DHT22;35069;47.906;1.892;2023-01-29T08:27:41;2.10;99.90
49238;DHT22;35069;47.906;1.892;2023-01-29T08:30:07;2.30;99.90
49238;DHT22;35069;47.906;1.892;2023-01-29T08:32:33;2.20;99.90
49238;DHT22;35069;47.906;1.892;2023-01-29T08:34:59;2.20;99.90
49238;DHT22;35069;47.906;1.892;2023-01-29T08:37:24;2.10;99.90
49238;DHT22;35069;47.906;1.892;2023-01-29T08:39:50;2.20;99.90
49238;DHT22;35069;47.906;1.892;2023-01-29T08:42:15;2.20;99.90
49238;DHT22;35069;47.906;1.892;2023-01-29T08:44:41;2.20;99.90
49238;DHT22;35069;47.906;1.892;2023-01-29T08:47:07;2.20;99.90
49238;DHT22;35069;47.906;1.892;2023-01-29T08:49:32;2.40;99.90
49238;DHT22;35069;47.906;1.892;2023-01-29T08:51:58;2.40;99.90
49238;DHT22;35069;47.906;1.892;2023-01-29T08:54:23;2.50;99.90
49238;DHT22;35069;47.906;1.892;2023-01-29T08:56:49;2.50;99.90
49238;DHT22;35069;47.906;1.892;2023-01-29T08:59:15;2.60;99.90
49238;DHT22;35069;47.906;1.892;2023-01-29T09:01:41;2.70;99.90
49238;DHT22;35069;47.906;1.892;2023-01-29T09:04:07;2.70;99.90
49238;DHT22;35069;47.906;1.892;2023-01-29T09:06:33;2.70;99.90
49238;DHT22;35069;47.906;1.892;2023-01-29T09:08:58;2.80;99.90
49238;DHT22;35069;47.906;1.892;2023-01-29T09:11:24;3.00;99.90
49238;DHT22;35069;47.906;1.892;2023-01-29T09:13:50;3.00;99.90
49238;DHT22;35069;47.906;1.892;2023-01-29T09:16:16;3.10;99.90
49238;DHT22;35069;47.906;1.892;2023-01-29T09:18:41;3.20;99.90
49238;DHT22;35069;47.906;1.892;2023-01-29T09:21:07;3.30;99.90
49238;DHT22;35069;47.906;1.892;2023-01-29T09:23:33;3.40;99.90
49238;DHT22;35069;47.906;1.892;2023-01-29T09:25:59;3.50;99.90
49238;DHT22;35069;47.906;1.892;2023-01-29T09:28:25;3.60;99.90
49238;DHT22;35069;47.906;1.892;2023-01-29T09:30:50;3.80;99.90
49238;DHT22;35069;47.906;1.892;2023-01-29T09:33:16;4.00;99.90
49238;DHT22;35069;47.906;1.892;2023-01-29T09:35:43;4.10;99.90
49238;DHT22;35069;47.906;1.892;2023-01-29T09:38:10;4.20;99.90
49238;DHT22;35069;47.906;1.892;2023-01-29T09:41:04;4.20;99.90
49238;DHT22;35069;47.906;1.892;2023-01-29T09:46:14;4.40;99.90
49238;DHT22;35069;47.906;1.892;2023-01-29T09:48:40;4.40;99.90
49238;DHT22;35069;47.906;1.892;2023-01-29T09:51:27;4.60;99.90
49238;DHT22;35069;47.906;1.892;2023-01-29T09:54:24;4.90;99.90
49238;DHT22;35069;47.906;1.892;2023-01-29T09:56:55;5.10;99.90
49238;DHT22;35069;47.906;1.892;2023-01-29T09:59:26;5.30;99.90
49238;DHT22;35069;47.906;1.892;2023-01-29T10:13:13;5.20;99.90
49238;DHT22;35069;47.906;1.892;2023-01-29T10:26:38;4.80;99.90
49238;DHT22;35069;47.906;1.892;2023-01-29T10:29:06;4.80;99.90
49238;DHT22;35069;47.906;1.892;2023-01-29T10:31:36;4.90;99.90
49238;DHT22;35069;47.906;1.892;2023-01-29T10:36:37;5.00;99.90
49238;DHT22;35069;47.906;1.892;2023-01-29T10:39:15;5.00;99.90
49238;DHT22;35069;47.906;1.892;2023-01-29T10:42:03;5.00;99.90
49238;DHT22;35069;47.906;1.892;2023-01-29T10:44:43;4.90;99.90
49238;DHT22;35069;47.906;1.892;2023-01-29T10:55:45;5.80;99.90
49238;DHT22;35069;47.906;1.892;2023-01-29T11:00:50;8.30;99.90
49238;DHT22;35069;47.906;1.892;2023-01-29T11:03:25;9.30;99.90
49238;DHT22;35069;47.906;1.892;2023-01-29T11:14:17;12.00;99.90
49238;DHT22;35069;47.906;1.892;2023-01-29T11:16:45;12.40;99.90
49238;DHT22;35069;47.906;1.892;2023-01-29T11:19:11;12.50;98.40
49238;DHT22;35069;47.906;1.892;2023-01-29T11:21:59;12.70;98.10
49238;DHT22;35069;47.906;1.892;2023-01-29T11:24:26;12.80;93.40
49238;DHT22;35069;47.906;1.892;2023-01-29T11:26:54;12.70;94.60
49238;DHT22;35069;47.906;1.892;2023-01-29T11:31:59;12.70;93.10
49238;DHT22;35069;47.906;1.892;2023-01-29T11:34:26;12.80;93.50
49238;DHT22;35069;47.906;1.892;2023-01-29T11:37:01;12.60;92.10
49238;DHT22;35069;47.906;1.892;2023-01-29T11:39:28;12.80;92.90
49238;DHT22;35069;47.906;1.892;2023-01-29T11:41:56;13.00;92.30
49238;DHT22;35069;47.906;1.892;2023-01-29T11:44:28;13.00;88.10
49238;DHT22;35069;47.906;1.892;2023-01-29T11:46:54;12.50;84.40
49238;DHT22;35069;47.906;1.892;2023-01-29T11:49:32;12.30;87.60
49238;DHT22;35069;47.906;1.892;2023-01-29T11:52:01;12.10;85.80
49238;DHT22;35069;47.906;1.892;2023-01-29T11:59:53;12.30;82.40
49238;DHT22;35069;47.906;1.892;2023-01-29T12:02:46;12.30;80.80
49238;DHT22;35069;47.906;1.892;2023-01-29T12:05:16;12.70;78.20
49238;DHT22;35069;47.906;1.892;2023-01-29T12:07:43;12.70;80.80
49238;DHT22;35069;47.906;1.892;2023-01-29T12:13:23;12.90;79.30
49238;DHT22;35069;47.906;1.892;2023-01-29T12:16:38;12.50;79.90
49238;DHT22;35069;47.906;1.892;2023-01-29T12:19:10;12.70;82.20
49238;DHT22;35069;47.906;1.892;2023-01-29T12:21:48;12.70;80.60
49238;DHT22;35069;47.906;1.892;2023-01-29T12:27:11;12.90;79.30
49238;DHT22;35069;47.906;1.892;2023-01-29T12:29:51;13.00;81.80
49238;DHT22;35069;47.906;1.892;2023-01-29T12:37:43;12.30;76.90
49238;DHT22;35069;47.906;1.892;2023-01-29T12:40:16;12.00;74.20
49238;DHT22;35069;47.906;1.892;2023-01-29T12:42:47;11.70;73.20
49238;DHT22;35069;47.906;1.892;2023-01-29T12:45:22;11.50;72.90
49238;DHT22;35069;47.906;1.892;2023-01-29T12:47:56;10.80;72.10
49238;DHT22;35069;47.906;1.892;2023-01-29T12:50:27;10.20;71.80
49238;DHT22;35069;47.906;1.892;2023-01-29T12:55:41;9.40;72.00
49238;DHT22;35069;47.906;1.892;2023-01-29T12:58:15;9.10;72.60
49238;DHT22;35069;47.906;1.892;2023-01-29T13:00:43;8.90;73.40
49238;DHT22;35069;47.906;1.892;2023-01-29T13:05:50;8.90;76.40
49238;DHT22;35069;47.906;1.892;2023-01-29T13:08:35;8.90;76.10
49238;DHT22;35069;47.906;1.892;2023-01-29T13:11:12;8.90;75.40
49238;DHT22;35069;47.906;1.892;2023-01-29T13:13:50;8.80;74.50
49238;DHT22;35069;47.906;1.892;2023-01-29T13:16:23;8.60;74.90
49238;DHT22;35069;47.906;1.892;2023-01-29T13:21:22;8.60;76.20
49238;DHT22;35069;47.906;1.892;2023-01-29T13:23:55;8.50;75.90
49238;DHT22;35069;47.906;1.892;2023-01-29T13:26:22;8.20;75.60
49238;DHT22;35069;47.906;1.892;2023-01-29T13:28:50;8.00;75.70
49238;DHT22;35069;47.906;1.892;2023-01-29T13:31:29;7.80;77.20
49238;DHT22;35069;47.906;1.892;2023-01-29T13:34:12;7.70;77.80
49238;DHT22;35069;47.906;1.892;2023-01-29T13:36:53;7.70;78.40
49238;DHT22;35069;47.906;1.892;2023-01-29T13:39:37;7.60;78.70
49238;DHT22;35069;47.906;1.892;2023-01-29T13:42:37;7.60;79.00
49238;DHT22;35069;47.906;1.892;2023-01-29T13:45:05;7.70;79.20
49238;DHT22;35069;47.906;1.892;2023-01-29T13:47:38;7.60;79.00
49238;DHT22;35069;47.906;1.892;2023-01-29T13:52:42;7.50;79.70
49238;DHT22;35069;47.906;1.892;2023-01-29T14:05:55;7.50;81.40
49238;DHT22;35069;47.906;1.892;2023-01-29T14:13:47;7.00;81.00
49238;DHT22;35069;47.906;1.892;2023-01-29T14:18:56;6.80;82.20
49238;DHT22;35069;47.906;1.892;2023-01-29T14:21:25;6.60;83.30
49238;DHT22;35069;47.906;1.892;2023-01-29T14:29:28;6.80;84.40
49238;DHT22;35069;47.906;1.892;2023-01-29T14:32:06;6.90;84.20
49238;DHT22;35069;47.906;1.892;2023-01-29T14:34:43;6.80;84.10
49238;DHT22;35069;47.906;1.892;2023-01-29T14:39:52;6.60;84.40
49238;DHT22;35069;47.906;1.892;2023-01-29T14:42:28;6.50;84.60
49238;DHT22;35069;47.906;1.892;2023-01-29T14:49:58;6.40;85.50
49238;DHT22;35069;47.906;1.892;2023-01-29T14:52:41;6.30;86.40
49238;DHT22;35069;47.906;1.892;2023-01-29T14:55:28;6.30;87.00
49238;DHT22;35069;47.906;1.892;2023-01-29T14:57:56;6.30;87.30
49238;DHT22;35069;47.906;1.892;2023-01-29T15:00:26;6.40;87.00
49238;DHT22;35069;47.906;1.892;2023-01-29T15:02:52;6.40;86.90
49238;DHT22;35069;47.906;1.892;2023-01-29T15:05:24;6.50;87.10
49238;DHT22;35069;47.906;1.892;2023-01-29T15:08:02;6.40;87.00
49238;DHT22;35069;47.906;1.892;2023-01-29T15:13:17;6.30;87.40
49238;DHT22;35069;47.906;1.892;2023-01-29T15:15:53;6.30;87.80
49238;DHT22;35069;47.906;1.892;2023-01-29T15:18:40;6.20;88.00
49238;DHT22;35069;47.906;1.892;2023-01-29T15:21:15;6.10;87.70
49238;DHT22;35069;47.906;1.892;2023-01-29T15:23:42;6.00;87.60
49238;DHT22;35069;47.906;1.892;2023-01-29T15:26:27;5.80;87.60
49238;DHT22;35069;47.906;1.892;2023-01-29T15:28:57;5.70;88.00
49238;DHT22;35069;47.906;1.892;2023-01-29T15:31:24;5.60;88.50
49238;DHT22;35069;47.906;1.892;2023-01-29T15:33:53;5.40;88.30
49238;DHT22;35069;47.906;1.892;2023-01-29T15:36:37;5.30;88.60
49238;DHT22;35069;47.906;1.892;2023-01-29T15:41:37;5.20;89.10
49238;DHT22;35069;47.906;1.892;2023-01-29T15:44:03;5.10;89.80
49238;DHT22;35069;47.906;1.892;2023-01-29T15:46:37;5.00;89.90
49238;DHT22;35069;47.906;1.892;2023-01-29T15:49:10;4.90;89.80
49238;DHT22;35069;47.906;1.892;2023-01-29T15:51:40;4.90;90.10
49238;DHT22;35069;47.906;1.892;2023-01-29T15:54:11;4.80;90.20
49238;DHT22;35069;47.906;1.892;2023-01-29T15:56:48;4.80;90.20
49238;DHT22;35069;47.906;1.892;2023-01-29T15:59:38;4.70;90.30
49238;DHT22;35069;47.906;1.892;2023-01-29T16:02:47;4.60;90.50
49238;DHT22;35069;47.906;1.892;2023-01-29T16:05:18;4.50;90.80
49238;DHT22;35069;47.906;1.892;2023-01-29T16:07:45;4.50;91.10
49238;DHT22;35069;47.906;1.892;2023-01-29T16:10:21;4.40;91.20
49238;DHT22;35069;47.906;1.892;2023-01-29T16:12:48;4.40;91.40
49238;DHT22;35069;47.906;1.892;2023-01-29T16:15:28;4.40;91.60
49238;DHT22;35069;47.906;1.892;2023-01-29T16:17:56;4.50;91.80
49238;DHT22;35069;47.906;1.892;2023-01-29T16:20:44;4.60;92.20
49238;DHT22;35069;47.906;1.892;2023-01-29T16:23:28;4.50;93.00
49238;DHT22;35069;47.906;1.892;2023-01-29T16:26:02;4.40;92.80
49238;DHT22;35069;47.906;1.892;2023-01-29T16:28:45;4.60;92.90
49238;DHT22;35069;47.906;1.892;2023-01-29T16:31:13;4.60;93.00
49238;DHT22;35069;47.906;1.892;2023-01-29T16:33:45;4.60;93.00
49238;DHT22;35069;47.906;1.892;2023-01-29T16:36:26;4.60;93.00
49238;DHT22;35069;47.906;1.892;2023-01-29T16:39:03;4.60;93.50
49238;DHT22;35069;47.906;1.892;2023-01-29T16:41:37;4.50;93.80
49238;DHT22;35069;47.906;1.892;2023-01-29T16:44:29;4.40;94.10
49238;DHT22;35069;47.906;1.892;2023-01-29T16:46:54;4.40;93.70
49238;DHT22;35069;47.906;1.892;2023-01-29T16:51:55;4.50;93.90
49238;DHT22;35069;47.906;1.892;2023-01-29T16:54:24;4.40;93.90
49238;DHT22;35069;47.906;1.892;2023-01-29T16:57:02;4.50;94.10
49238;DHT22;35069;47.906;1.892;2023-01-29T16:59:54;4.50;94.10
49238;DHT22;35069;47.906;1.892;2023-01-29T17:02:27;4.50;94.10
49238;DHT22;35069;47.906;1.892;2023-01-29T17:05:30;4.50;94.00
49238;DHT22;35069;47.906;1.892;2023-01-29T17:07:59;4.50;93.90
49238;DHT22;35069;47.906;1.892;2023-01-29T17:10:26;4.40;93.80
49238;DHT22;35069;47.906;1.892;2023-01-29T17:12:59;4.30;93.90
49238;DHT22;35069;47.906;1.892;2023-01-29T17:15:42;4.20;93.70
49238;DHT22;35069;47.906;1.892;2023-01-29T17:18:25;4.00;93.90
49238;DHT22;35069;47.906;1.892;2023-01-29T17:20:51;3.90;94.00
49238;DHT22;35069;47.906;1.892;2023-01-29T17:23:22;3.80;94.10
49238;DHT22;35069;47.906;1.892;2023-01-29T17:25:48;3.70;94.10
49238;DHT22;35069;47.906;1.892;2023-01-29T17:28:15;3.70;94.50
49238;DHT22;35069;47.906;1.892;2023-01-29T17:30:50;3.50;94.40
49238;DHT22;35069;47.906;1.892;2023-01-29T17:33:18;3.50;94.70
49238;DHT22;35069;47.906;1.892;2023-01-29T17:35:48;3.40;94.90
49238;DHT22;35069;47.906;1.892;2023-01-29T17:38:15;3.40;94.90
49238;DHT22;35069;47.906;1.892;2023-01-29T17:40:51;3.40;95.10
49238;DHT22;35069;47.906;1.892;2023-01-29T17:43:18;3.30;95.20
49238;DHT22;35069;47.906;1.892;2023-01-29T17:45:45;3.30;95.50
49238;DHT22;35069;47.906;1.892;2023-01-29T17:48:25;3.20;95.70
49238;DHT22;35069;47.906;1.892;2023-01-29T17:50:54;3.20;95.80
49238;DHT22;35069;47.906;1.892;2023-01-29T17:53:21;3.20;95.90
49238;DHT22;35069;47.906;1.892;2023-01-29T17:55:47;3.10;96.00
49238;DHT22;35069;47.906;1.892;2023-01-29T17:58:19;3.20;96.40
49238;DHT22;35069;47.906;1.892;2023-01-29T18:01:06;3.10;96.30
49238;DHT22;35069;47.906;1.892;2023-01-29T18:03:34;3.10;96.80
49238;DHT22;35069;47.906;1.892;2023-01-29T18:06:00;3.10;97.30
49238;DHT22;35069;47.906;1.892;2023-01-29T18:08:32;3.00;97.70
49238;DHT22;35069;47.906;1.892;2023-01-29T18:10:59;3.10;97.50
49238;DHT22;35069;47.906;1.892;2023-01-29T18:13:32;3.00;97.40
49238;DHT22;35069;47.906;1.892;2023-01-29T18:16:00;2.90;97.60
49238;DHT22;35069;47.906;1.892;2023-01-29T18:18:26;2.90;97.70
49238;DHT22;35069;47.906;1.892;2023-01-29T18:20:51;2.90;97.80
49238;DHT22;35069;47.906;1.892;2023-01-29T18:23:19;2.90;97.80
49238;DHT22;35069;47.906;1.892;2023-01-29T18:25:45;2.90;97.90
49238;DHT22;35069;47.906;1.892;2023-01-29T18:28:34;2.90;97.80
49238;DHT22;35069;47.906;1.892;2023-01-29T18:31:05;3.00;98.70
49238;DHT22;35069;47.906;1.892;2023-01-29T18:33:57;3.00;98.30
49238;DHT22;35069;47.906;1.892;2023-01-29T18:36:24;3.00;98.40
49238;DHT22;35069;47.906;1.892;2023-01-29T18:39:08;3.00;98.50
49238;DHT22;35069;47.906;1.892;2023-01-29T18:41:34;3.10;98.80
49238;DHT22;35069;47.906;1.892;2023-01-29T18:44:00;3.10;99.00
49238;DHT22;35069;47.906;1.892;2023-01-29T18:46:25;3.20;99.30
49238;DHT22;35069;47.906;1.892;2023-01-29T18:48:51;3.20;99.30
49238;DHT22;35069;47.906;1.892;2023-01-29T18:51:17;3.20;99.60
49238;DHT22;35069;47.906;1.892;2023-01-29T18:53:42;3.30;99.90